Time;durP1;ratioP1;P1;durP2;ratioP2;P2;SDS_P1;SDS_P2;PMS_P1;PMS_P2;Temp;Humidity;BMP_temperature;BMP_pressure;BME280_temperature;BME280_humidity;BME280_pressure;Samples;Min_cycle;Max_cycle;Signal;HPM_P1;HPM_P2
2021/05/28 00:01:44;;;;;;;13.00;4.60;;;20.20;68.80;;;;;;4783496;29;20072;-82
2021/05/28 00:04:10;;;;;;;9.93;4.70;;;20.20;69.40;;;;;;4783142;29;20297;-81
2021/05/28 00:06:36;;;;;;;11.87;3.93;;;20.10;69.80;;;;;;4769554;30;20042;-81
2021/05/28 00:09:03;;;;;;;8.90;3.60;;;20.10;70.20;;;;;;4782894;30;20301;-83
2021/05/28 00:11:29;;;;;;;10.18;4.05;;;20.10;70.40;;;;;;4783258;29;20032;-82
2021/05/28 00:13:55;;;;;;;7.85;4.68;;;20.00;70.40;;;;;;4750416;29;20033;-83
2021/05/28 00:16:21;;;;;;;11.05;4.50;;;20.00;69.70;;;;;;4765492;30;20098;-84
2021/05/28 00:18:47;;;;;;;9.35;4.10;;;19.90;69.50;;;;;;4774493;29;20036;-83
2021/05/28 00:21:13;;;;;;;10.43;5.15;;;20.00;69.60;;;;;;4768532;30;20413;-82
2021/05/28 00:23:39;;;;;;;10.90;4.30;;;19.90;69.70;;;;;;4783414;29;20034;-83
2021/05/28 00:26:05;;;;;;;12.20;4.50;;;19.90;70.10;;;;;;4783005;29;20039;-85
2021/05/28 00:28:31;;;;;;;14.15;4.57;;;19.80;69.80;;;;;;4783255;30;20089;-83
2021/05/28 00:30:57;;;;;;;10.40;4.33;;;19.90;69.70;;;;;;4768489;30;20042;-81
2021/05/28 00:33:23;;;;;;;8.30;4.07;;;19.90;69.10;;;;;;4768519;30;20311;-84
2021/05/28 00:35:49;;;;;;;9.38;4.40;;;19.80;68.70;;;;;;4782876;29;20409;-83
2021/05/28 00:38:15;;;;;;;7.70;3.60;;;19.90;67.80;;;;;;4769357;30;20023;-80
2021/05/28 00:40:41;;;;;;;6.45;3.28;;;19.80;68.30;;;;;;4783190;29;20050;-83
2021/05/28 00:43:07;;;;;;;7.55;3.95;;;19.80;68.50;;;;;;4783250;29;20038;-83
2021/05/28 00:45:33;;;;;;;7.43;4.40;;;19.80;68.80;;;;;;4765254;30;20506;-82
2021/05/28 00:47:59;;;;;;;7.33;4.13;;;19.80;69.20;;;;;;4751944;30;20070;-84
2021/05/28 00:50:29;;;;;;;5.70;3.22;;;19.70;69.80;;;;;;4782225;29;20345;-84
2021/05/28 00:52:57;;;;;;;9.60;4.20;;;19.70;70.40;;;;;;4786623;29;20114;-83
2021/05/28 00:55:25;;;;;;;9.77;3.97;;;19.50;69.60;;;;;;4786350;29;20046;-82
2021/05/28 00:57:52;;;;;;;12.40;4.88;;;19.40;69.40;;;;;;4786635;29;20390;-84
2021/05/28 01:00:19;;;;;;;11.32;4.78;;;19.30;69.70;;;;;;4789408;29;20066;-83
2021/05/28 01:02:45;;;;;;;10.88;4.72;;;19.00;70.00;;;;;;4788982;29;20382;-81
2021/05/28 01:05:11;;;;;;;9.90;4.43;;;19.00;70.30;;;;;;4786043;29;20046;-82
2021/05/28 01:07:37;;;;;;;11.95;4.93;;;19.00;70.40;;;;;;4771512;30;20286;-82
2021/05/28 01:10:04;;;;;;;9.80;4.55;;;18.90;70.70;;;;;;4782747;29;20113;-81
2021/05/28 01:12:30;;;;;;;9.10;4.88;;;19.00;70.90;;;;;;4783304;29;20020;-82
2021/05/28 01:14:57;;;;;;;8.48;4.95;;;18.90;71.30;;;;;;4770923;30;20036;-81
2021/05/28 01:17:22;;;;;;;17.55;5.70;;;18.90;72.00;;;;;;4781876;29;20043;-81
2021/05/28 01:19:48;;;;;;;11.23;4.75;;;18.90;72.80;;;;;;4785813;30;20035;-82
2021/05/28 01:22:19;;;;;;;10.45;4.85;;;18.80;73.50;;;;;;4786180;29;20027;-81
2021/05/28 01:24:45;;;;;;;10.60;5.50;;;18.80;74.20;;;;;;4786227;29;20127;-83
2021/05/28 01:27:13;;;;;;;7.75;4.53;;;18.70;74.50;;;;;;4770899;30;20035;-83
2021/05/28 01:29:40;;;;;;;7.68;5.38;;;18.70;74.60;;;;;;4785965;30;20043;-81
2021/05/28 01:32:06;;;;;;;11.30;4.88;;;18.70;75.10;;;;;;4784778;30;20039;-83
2021/05/28 01:34:32;;;;;;;9.38;4.65;;;18.60;76.00;;;;;;4785631;29;20039;-82
2021/05/28 01:36:58;;;;;;;10.75;4.55;;;18.40;76.90;;;;;;4771671;30;20425;-82
2021/05/28 01:39:24;;;;;;;11.32;4.85;;;18.30;77.20;;;;;;4785895;29;20036;-83
2021/05/28 01:41:49;;;;;;;9.45;4.80;;;18.30;77.30;;;;;;4785321;29;20477;-82
2021/05/28 01:44:17;;;;;;;10.10;5.03;;;18.20;78.20;;;;;;4785810;29;20478;-83
2021/05/28 01:46:43;;;;;;;8.32;5.22;;;18.10;79.10;;;;;;4785471;30;20042;-84
2021/05/28 01:49:09;;;;;;;8.40;4.15;;;18.10;79.60;;;;;;4775063;29;20036;-82
2021/05/28 01:51:35;;;;;;;10.00;4.80;;;18.10;79.70;;;;;;4783559;29;20043;-83
2021/05/28 01:54:01;;;;;;;10.67;4.63;;;18.20;80.10;;;;;;4785739;29;20032;-84
2021/05/28 01:56:28;;;;;;;9.32;4.45;;;18.00;80.60;;;;;;4785980;29;20822;-85
2021/05/28 01:58:54;;;;;;;9.45;4.13;;;18.00;80.90;;;;;;4778287;29;20028;-84
2021/05/28 02:01:20;;;;;;;9.60;4.13;;;18.00;81.10;;;;;;4777027;30;20393;-83
2021/05/28 02:03:46;;;;;;;10.05;3.85;;;18.00;81.20;;;;;;4771754;30;20114;-85
2021/05/28 02:06:12;;;;;;;7.15;4.00;;;18.00;81.50;;;;;;4785529;29;20135;-83
2021/05/28 02:08:38;;;;;;;12.93;4.33;;;17.90;82.40;;;;;;4771523;29;20073;-82
2021/05/28 02:11:05;;;;;;;8.75;4.63;;;17.90;82.60;;;;;;4793904;29;20304;-82
2021/05/28 02:13:31;;;;;;;8.77;4.43;;;18.00;82.30;;;;;;4785126;29;20047;-83
2021/05/28 02:15:57;;;;;;;9.05;4.70;;;18.10;82.10;;;;;;4785258;29;20032;-82
2021/05/28 02:18:23;;;;;;;7.78;4.55;;;18.10;81.90;;;;;;4755091;29;20032;-82
2021/05/28 02:20:49;;;;;;;12.25;5.30;;;18.30;81.70;;;;;;4785152;29;20123;-83
2021/05/28 02:23:16;;;;;;;11.45;4.63;;;18.40;81.50;;;;;;4784732;29;20402;-83
2021/05/28 02:25:42;;;;;;;10.50;4.35;;;18.50;81.20;;;;;;4785136;29;20028;-83
2021/05/28 02:28:08;;;;;;;10.77;4.47;;;18.70;80.90;;;;;;4769955;30;20038;-83
2021/05/28 02:30:35;;;;;;;11.50;5.10;;;18.70;80.60;;;;;;4769837;30;20315;-83
2021/05/28 02:33:00;;;;;;;8.63;4.75;;;18.90;80.40;;;;;;4784647;29;20473;-83
2021/05/28 02:35:27;;;;;;;7.57;4.80;;;19.00;80.30;;;;;;4784760;30;20108;-84
2021/05/28 02:37:52;;;;;;;11.35;4.50;;;19.10;80.40;;;;;;4784612;29;20321;-82
2021/05/28 02:40:18;;;;;;;9.25;4.30;;;19.10;80.50;;;;;;4784777;29;20078;-83
2021/05/28 02:42:44;;;;;;;10.13;5.68;;;19.10;80.40;;;;;;4784659;30;20103;-82
2021/05/28 02:45:11;;;;;;;11.33;5.40;;;19.10;80.50;;;;;;4784911;30;20087;-84
2021/05/28 02:47:37;;;;;;;9.27;5.45;;;19.20;80.50;;;;;;4754957;29;20277;-83
2021/05/28 02:50:04;;;;;;;12.32;4.78;;;19.20;80.60;;;;;;4784364;29;20048;-83
2021/05/28 02:52:30;;;;;;;10.23;4.85;;;19.30;80.70;;;;;;4784737;30;20039;-87
2021/05/28 02:54:55;;;;;;;9.37;5.03;;;19.30;80.80;;;;;;4769807;30;20036;-83
2021/05/28 02:57:22;;;;;;;12.82;4.88;;;19.30;81.00;;;;;;4770782;30;20292;-83
2021/05/28 02:59:48;;;;;;;10.18;4.72;;;19.40;81.50;;;;;;4776169;30;20393;-83
2021/05/28 03:02:14;;;;;;;12.73;5.55;;;19.40;81.90;;;;;;4770842;30;20032;-84
2021/05/28 03:04:39;;;;;;;9.10;4.80;;;19.40;82.10;;;;;;4784295;29;20157;-83
2021/05/28 03:07:05;;;;;;;11.85;5.07;;;19.40;82.20;;;;;;4770761;30;20114;-83
2021/05/28 03:09:31;;;;;;;10.13;5.20;;;19.40;82.50;;;;;;4783940;29;20036;-84
2021/05/28 03:11:57;;;;;;;8.23;5.30;;;19.40;82.80;;;;;;4784049;29;20039;-83
2021/05/28 03:14:23;;;;;;;12.27;4.53;;;19.30;82.90;;;;;;4784116;29;20317;-83
2021/05/28 03:16:49;;;;;;;11.55;4.90;;;19.40;83.00;;;;;;4784245;29;20089;-85
2021/05/28 03:19:20;;;;;;;9.90;5.45;;;19.30;83.10;;;;;;4770226;30;20068;-83
2021/05/28 03:24:31;;;;;;;10.98;5.00;;;19.30;84.00;;;;;;4783778;29;20074;-82
2021/05/28 03:26:57;;;;;;;10.55;5.13;;;19.20;84.30;;;;;;4770251;30;20032;-81
2021/05/28 03:29:23;;;;;;;9.95;5.50;;;19.20;85.00;;;;;;4768766;30;20050;-81
2021/05/28 03:31:49;;;;;;;9.07;4.45;;;19.20;85.20;;;;;;4769003;30;20428;-82
2021/05/28 03:34:14;;;;;;;11.98;5.03;;;19.20;85.20;;;;;;4783633;29;20031;-82
2021/05/28 03:36:40;;;;;;;8.68;4.43;;;19.10;86.00;;;;;;4770117;30;20052;-83
2021/05/28 03:39:07;;;;;;;9.02;4.60;;;19.10;86.50;;;;;;4783719;29;20408;-84
2021/05/28 03:41:32;;;;;;;10.07;4.85;;;19.10;86.60;;;;;;4783374;29;20217;-83
2021/05/28 03:43:59;;;;;;;6.57;4.07;;;19.10;86.60;;;;;;4783322;29;20084;-81
2021/05/28 03:46:24;;;;;;;10.48;3.83;;;19.10;86.70;;;;;;4769715;30;20321;-83
2021/05/28 03:48:50;;;;;;;8.90;4.63;;;19.00;86.70;;;;;;4783639;29;20040;-82
2021/05/28 03:51:17;;;;;;;6.10;3.17;;;19.00;86.80;;;;;;4781228;29;20048;-83
2021/05/28 03:53:43;;;;;;;8.10;2.42;;;18.90;85.90;;;;;;4783604;30;20529;-83
2021/05/28 03:56:08;;;;;;;3.17;2.22;;;18.80;83.90;;;;;;4768374;30;20027;-83
2021/05/28 03:58:34;;;;;;;5.68;1.90;;;18.70;81.80;;;;;;4780612;30;20491;-83
2021/05/28 04:01:00;;;;;;;4.25;1.55;;;18.60;80.90;;;;;;4769794;30;20063;-84
2021/05/28 04:03:26;;;;;;;3.70;1.87;;;18.60;81.30;;;;;;4783825;30;20032;-82
2021/05/28 04:05:52;;;;;;;4.00;1.50;;;18.50;81.90;;;;;;4783295;30;20643;-83
2021/05/28 04:08:18;;;;;;;3.47;1.45;;;18.50;81.60;;;;;;4753548;30;20285;-83
2021/05/28 04:10:44;;;;;;;4.43;1.77;;;18.40;81.60;;;;;;4783438;29;20130;-86
2021/05/28 04:13:10;;;;;;;4.00;1.35;;;18.50;80.90;;;;;;4769967;30;20721;-83
2021/05/28 04:15:36;;;;;;;6.75;2.53;;;18.50;80.20;;;;;;4783511;29;20040;-79
2021/05/28 04:18:02;;;;;;;9.35;4.85;;;18.60;80.10;;;;;;4769622;30;20658;-78
2021/05/28 04:20:28;;;;;;;17.08;6.05;;;18.70;80.50;;;;;;4769613;30;20051;-79
2021/05/28 04:22:54;;;;;;;9.45;3.85;;;18.80;79.10;;;;;;4772829;30;20070;-80
2021/05/28 04:25:20;;;;;;;6.97;3.40;;;18.90;77.90;;;;;;4778209;29;20031;-83
2021/05/28 04:27:46;;;;;;;4.90;1.90;;;19.00;77.80;;;;;;4767266;30;20039;-81
2021/05/28 04:30:12;;;;;;;3.63;1.38;;;19.10;76.10;;;;;;4806785;29;20062;-83
2021/05/28 04:32:38;;;;;;;3.90;1.45;;;19.10;75.30;;;;;;4792571;29;20394;-82
2021/05/28 04:35:04;;;;;;;3.35;1.60;;;19.10;74.70;;;;;;4788406;29;20059;-81
2021/05/28 04:37:30;;;;;;;6.25;2.95;;;19.10;75.80;;;;;;4788742;29;20439;-83
2021/05/28 04:39:56;;;;;;;4.68;1.80;;;19.20;75.90;;;;;;4773953;30;20036;-84
2021/05/28 04:42:22;;;;;;;4.30;2.25;;;19.20;75.40;;;;;;4773737;30;20042;-85
2021/05/28 04:44:48;;;;;;;44.60;21.88;;;19.20;75.70;;;;;;4775122;30;20040;-85
2021/05/28 04:47:14;;;;;;;103.80;44.70;;;19.20;76.40;;;;;;4788557;29;20032;-84
2021/05/28 04:49:40;;;;;;;32.78;13.38;;;19.10;76.90;;;;;;4788894;29;20056;-85
2021/05/28 04:52:06;;;;;;;6.27;3.17;;;19.20;77.20;;;;;;4775040;30;20036;-83
2021/05/28 04:54:32;;;;;;;7.28;2.22;;;19.10;77.50;;;;;;4788447;29;20233;-84
2021/05/28 04:56:58;;;;;;;6.53;2.83;;;19.10;77.70;;;;;;4788492;29;20559;-83
2021/05/28 04:59:24;;;;;;;5.70;2.35;;;19.00;78.40;;;;;;4774964;30;20027;-81
2021/05/28 05:01:50;;;;;;;7.63;2.80;;;19.10;78.70;;;;;;4789050;29;20457;-83
2021/05/28 05:04:16;;;;;;;4.17;2.80;;;19.10;78.70;;;;;;4789102;29;20123;-84
2021/05/28 05:06:42;;;;;;;6.60;2.90;;;19.00;79.00;;;;;;4788553;30;20035;-83
2021/05/28 05:09:08;;;;;;;6.23;2.37;;;19.10;79.50;;;;;;4788369;29;20327;-84
2021/05/28 05:11:34;;;;;;;3.97;2.22;;;19.10;78.50;;;;;;4773860;30;20293;-85
2021/05/28 05:14:00;;;;;;;8.98;2.30;;;19.10;78.20;;;;;;4772549;30;20028;-81
2021/05/28 05:16:26;;;;;;;8.82;2.35;;;19.10;78.20;;;;;;4789000;30;20031;-86
2021/05/28 05:18:52;;;;;;;7.80;2.85;;;19.10;78.20;;;;;;4789326;30;20039;-88
2021/05/28 05:21:19;;;;;;;6.25;2.80;;;19.20;78.70;;;;;;4788443;29;20096;-82
2021/05/28 05:23:44;;;;;;;6.07;2.75;;;19.20;79.30;;;;;;4788507;29;20084;-85
2021/05/28 05:26:10;;;;;;;6.45;2.90;;;19.30;79.80;;;;;;4788933;29;20126;-87
2021/05/28 05:28:36;;;;;;;5.85;2.38;;;19.30;80.60;;;;;;4774917;30;20485;-84
2021/05/28 05:31:03;;;;;;;8.90;3.03;;;19.30;81.60;;;;;;4773567;30;20104;-83
2021/05/28 05:33:29;;;;;;;8.85;2.40;;;19.30;82.80;;;;;;4786432;29;20497;-85
2021/05/28 05:35:55;;;;;;;8.20;2.40;;;19.40;83.80;;;;;;4770087;30;20505;-81
2021/05/28 05:38:21;;;;;;;6.80;2.50;;;19.50;84.90;;;;;;4785453;30;20111;-80
2021/05/28 05:40:48;;;;;;;11.30;2.72;;;19.50;85.20;;;;;;4771961;30;20064;-81
2021/05/28 05:43:14;;;;;;;14.65;2.28;;;19.60;87.70;;;;;;4771852;30;20040;-82
2021/05/28 05:45:41;;;;;;;7.15;2.20;;;19.60;88.40;;;;;;4784924;29;20039;-80
2021/05/28 05:48:07;;;;;;;5.38;2.17;;;19.60;88.80;;;;;;4769417;30;20085;-80
2021/05/28 05:50:34;;;;;;;7.70;2.78;;;19.80;89.10;;;;;;4770813;30;20051;-80
2021/05/28 05:53:00;;;;;;;4.47;1.80;;;19.80;88.60;;;;;;4785107;30;20038;-81
2021/05/28 05:55:26;;;;;;;4.43;2.08;;;19.80;89.10;;;;;;4770952;30;20509;-80
2021/05/28 05:57:52;;;;;;;8.27;3.53;;;19.90;89.20;;;;;;4784976;29;20112;-80
2021/05/28 06:00:19;;;;;;;6.22;2.50;;;20.00;89.00;;;;;;4784988;29;21036;-81
2021/05/28 06:02:45;;;;;;;5.70;2.67;;;20.00;88.90;;;;;;4784910;30;20042;-80
2021/05/28 06:05:11;;;;;;;8.65;3.45;;;20.10;89.20;;;;;;4770838;30;20549;-80
2021/05/28 06:07:37;;;;;;;8.32;2.53;;;20.20;90.00;;;;;;4771109;30;20059;-81
2021/05/28 06:10:04;;;;;;;4.85;2.50;;;20.30;90.30;;;;;;4770955;30;20135;-82
2021/05/28 06:12:30;;;;;;;9.40;2.90;;;20.30;90.40;;;;;;4771118;30;20073;-80
2021/05/28 06:14:56;;;;;;;7.07;2.33;;;20.30;90.40;;;;;;4784643;29;20031;-82
2021/05/28 06:17:22;;;;;;;4.80;2.80;;;20.30;90.60;;;;;;4784423;29;20297;-79
2021/05/28 06:19:48;;;;;;;12.35;3.13;;;20.40;90.50;;;;;;4770953;30;20551;-82
2021/05/28 06:22:20;;;;;;;8.95;2.20;;;20.40;90.20;;;;;;4771133;30;20040;-81
2021/05/28 06:24:46;;;;;;;10.60;2.55;;;20.50;89.70;;;;;;4784394;30;20047;-79
2021/05/28 06:27:12;;;;;;;9.63;3.10;;;20.50;88.50;;;;;;4760687;30;20024;-80
2021/05/28 06:29:38;;;;;;;5.80;2.50;;;20.70;88.60;;;;;;4766558;30;20414;-79
2021/05/28 06:32:04;;;;;;;8.70;2.33;;;20.70;88.90;;;;;;4752917;30;20113;-81
2021/05/28 06:34:30;;;;;;;10.15;2.28;;;20.70;88.00;;;;;;4766627;30;20286;-80
2021/05/28 06:36:56;;;;;;;8.35;2.35;;;20.90;88.00;;;;;;4780375;29;20059;-79
2021/05/28 06:39:22;;;;;;;6.55;1.85;;;20.90;87.90;;;;;;4773193;29;20101;-82
2021/05/28 06:41:48;;;;;;;7.97;2.47;;;21.10;88.20;;;;;;4769511;30;20023;-82
2021/05/28 06:44:14;;;;;;;7.10;2.30;;;21.10;87.70;;;;;;4778484;29;20771;-82
2021/05/28 06:46:40;;;;;;;10.15;2.40;;;21.30;86.90;;;;;;4777670;30;20289;-81
2021/05/28 06:49:06;;;;;;;6.18;1.83;;;21.30;87.30;;;;;;4784056;30;20039;-81
2021/05/28 06:51:32;;;;;;;6.45;1.95;;;21.20;86.40;;;;;;4770782;30;20042;-85
2021/05/28 06:53:58;;;;;;;3.33;1.35;;;21.30;85.30;;;;;;4771088;30;20027;-86
2021/05/28 06:56:24;;;;;;;3.33;1.90;;;21.30;85.20;;;;;;4785550;29;20042;-88
2021/05/28 06:58:50;;;;;;;4.40;1.90;;;21.40;84.90;;;;;;4770808;30;20293;-85
2021/05/28 07:01:17;;;;;;;5.32;2.00;;;21.40;84.90;;;;;;4771027;30;20356;-87
2021/05/28 07:03:43;;;;;;;4.43;2.00;;;21.50;84.70;;;;;;4769024;30;20046;-80
2021/05/28 07:06:09;;;;;;;2.53;1.25;;;21.50;84.20;;;;;;4783644;30;20059;-81
2021/05/28 07:08:35;;;;;;;5.45;1.85;;;21.60;82.60;;;;;;4783423;29;20458;-81
2021/05/28 07:11:03;;;;;;;3.00;1.40;;;21.70;83.30;;;;;;4768704;30;20043;-79
2021/05/28 07:13:29;;;;;;;8.70;1.40;;;21.80;79.80;;;;;;4769921;30;20027;-81
2021/05/28 07:15:54;;;;;;;2.60;1.20;;;21.90;79.50;;;;;;4783900;30;20036;-83
2021/05/28 07:18:21;;;;;;;1.63;1.23;;;21.90;76.90;;;;;;4783189;29;20394;-82
2021/05/28 07:20:47;;;;;;;3.03;1.23;;;21.90;79.00;;;;;;4770153;30;20280;-86
2021/05/28 07:23:18;;;;;;;2.72;0.88;;;22.00;77.00;;;;;;4784693;30;20038;-86
2021/05/28 07:25:45;;;;;;;2.45;0.90;;;22.10;77.10;;;;;;4769642;30;20070;-87
2021/05/28 07:28:11;;;;;;;2.80;1.80;;;22.10;77.00;;;;;;4783884;30;20085;-84
2021/05/28 07:30:37;;;;;;;4.88;1.02;;;22.00;76.00;;;;;;4784402;29;20417;-83
2021/05/28 07:33:03;;;;;;;4.78;1.20;;;22.10;76.40;;;;;;4783626;29;20097;-82
2021/05/28 07:35:29;;;;;;;6.35;1.30;;;22.10;74.80;;;;;;4769086;30;20505;-80
2021/05/28 07:37:55;;;;;;;3.17;1.40;;;22.10;74.50;;;;;;4769445;30;20053;-81
2021/05/28 07:40:21;;;;;;;5.85;2.25;;;22.20;74.10;;;;;;4765112;30;20501;-81
2021/05/28 07:42:50;;;;;;;11.05;1.30;;;22.20;73.70;;;;;;4774117;30;20031;-79
2021/05/28 07:45:16;;;;;;;6.43;1.48;;;22.20;71.90;;;;;;4782776;29;20043;-79
2021/05/28 07:47:42;;;;;;;3.20;0.95;;;22.30;70.60;;;;;;4783170;29;20477;-79
2021/05/28 07:50:09;;;;;;;1.35;0.90;;;22.50;71.40;;;;;;4768087;30;20044;-80
2021/05/28 07:52:36;;;;;;;3.42;1.27;;;22.60;68.70;;;;;;4769684;30;20482;-81
2021/05/28 07:55:03;;;;;;;3.78;1.17;;;22.70;67.90;;;;;;4768589;30;20047;-80
2021/05/28 07:57:29;;;;;;;2.38;0.80;;;22.70;68.30;;;;;;4769309;30;20474;-80
2021/05/28 07:59:55;;;;;;;6.83;1.53;;;22.80;68.30;;;;;;4769107;30;20039;-81
2021/05/28 08:02:21;;;;;;;8.10;1.20;;;22.80;67.10;;;;;;4783496;29;20293;-78
2021/05/28 08:04:47;;;;;;;5.18;0.80;;;22.90;67.60;;;;;;4769561;30;20342;-80
2021/05/28 08:07:13;;;;;;;2.10;0.90;;;23.10;67.20;;;;;;4769495;30;20067;-80
2021/05/28 08:09:39;;;;;;;2.30;1.02;;;23.30;65.60;;;;;;4782771;29;20031;-78
2021/05/28 08:12:06;;;;;;;1.17;0.80;;;23.30;64.20;;;;;;4783246;29;20458;-79
2021/05/28 08:14:32;;;;;;;3.53;1.08;;;23.30;64.40;;;;;;4783145;29;20563;-80
2021/05/28 08:16:58;;;;;;;1.38;0.80;;;23.30;64.60;;;;;;4769316;30;20040;-78
2021/05/28 08:19:24;;;;;;;2.88;0.95;;;23.30;64.20;;;;;;4782590;29;20036;-79
2021/05/28 08:21:50;;;;;;;2.22;0.95;;;23.30;63.90;;;;;;4769330;30;20524;-79
2021/05/28 08:24:16;;;;;;;6.15;0.82;;;23.40;64.10;;;;;;4782807;29;20038;-77
2021/05/28 08:26:42;;;;;;;3.00;0.93;;;23.40;64.10;;;;;;4782841;29;20413;-79
2021/05/28 08:29:08;;;;;;;2.97;0.90;;;23.60;64.20;;;;;;4782682;29;20043;-76
2021/05/28 08:31:34;;;;;;;3.47;1.23;;;23.70;63.30;;;;;;4769027;30;20036;-76
2021/05/28 08:34:01;;;;;;;1.83;0.60;;;23.60;63.20;;;;;;4769001;30;20074;-76
2021/05/28 08:36:27;;;;;;;3.30;0.70;;;23.60;63.30;;;;;;4769033;30;20060;-76
2021/05/28 08:38:53;;;;;;;1.53;0.73;;;23.70;63.40;;;;;;4769206;30;20083;-75
2021/05/28 08:41:20;;;;;;;2.53;0.97;;;23.70;62.30;;;;;;4768353;30;20504;-78
2021/05/28 08:43:45;;;;;;;1.23;0.65;;;23.70;62.40;;;;;;4768348;30;20296;-78
2021/05/28 08:46:16;;;;;;;4.32;0.90;;;23.80;62.20;;;;;;4768516;30;20028;-79
2021/05/28 08:48:42;;;;;;;3.55;0.80;;;23.80;62.10;;;;;;4782819;29;20131;-79
2021/05/28 08:51:08;;;;;;;5.03;1.50;;;23.90;62.70;;;;;;4767344;30;20028;-79
2021/05/28 08:53:34;;;;;;;2.53;0.90;;;23.90;61.40;;;;;;4782999;29;20433;-80
2021/05/28 08:56:00;;;;;;;1.83;0.93;;;23.80;61.50;;;;;;4782038;29;20078;-79
2021/05/28 08:58:28;;;;;;;5.70;1.00;;;23.80;62.10;;;;;;4769273;30;20024;-80
2021/05/28 09:00:55;;;;;;;4.22;1.23;;;23.80;61.30;;;;;;4768527;30;20040;-78
2021/05/28 09:03:29;;;;;;;1.67;0.90;;;23.80;61.60;;;;;;4769108;30;20375;-79
2021/05/28 09:05:57;;;;;;;3.92;0.90;;;24.00;61.90;;;;;;4782615;29;20119;-80
2021/05/28 09:08:31;;;;;;;2.30;1.13;;;24.20;60.50;;;;;;4783379;29;20044;-79
2021/05/28 09:11:09;;;;;;;15.65;2.15;;;24.10;59.90;;;;;;4785423;30;20054;-80
2021/05/28 09:13:57;;;;;;;4.65;1.00;;;24.20;60.10;;;;;;4772638;30;20069;-79
2021/05/28 09:16:26;;;;;;;2.72;0.93;;;24.20;60.20;;;;;;4771349;30;20039;-79
2021/05/28 09:18:53;;;;;;;5.53;1.40;;;24.40;60.10;;;;;;4772231;30;20028;-78
2021/05/28 09:21:31;;;;;;;5.80;1.10;;;24.40;58.40;;;;;;4771602;30;20036;-76
2021/05/28 09:24:01;;;;;;;1.15;0.60;;;24.30;59.60;;;;;;4771422;30;20032;-76
2021/05/28 09:26:32;;;;;;;3.28;0.70;;;24.50;59.00;;;;;;4772023;30;20031;-77
2021/05/28 09:28:59;;;;;;;2.83;1.08;;;24.50;58.30;;;;;;4770624;30;20440;-78
2021/05/28 09:31:27;;;;;;;6.72;1.00;;;24.60;58.90;;;;;;4784671;29;20421;-79
2021/05/28 09:33:57;;;;;;;3.70;0.82;;;24.70;58.50;;;;;;4771292;30;20039;-79
2021/05/28 09:36:24;;;;;;;5.55;1.00;;;24.60;58.60;;;;;;4771296;30;20051;-80
2021/05/28 09:39:10;;;;;;;1.85;0.70;;;24.50;58.30;;;;;;4770709;30;20043;-80
2021/05/28 09:41:48;;;;;;;2.38;1.05;;;24.70;59.30;;;;;;4785057;29;20108;-78
2021/05/28 09:44:24;;;;;;;4.32;0.80;;;24.80;58.10;;;;;;4770952;30;20162;-76
2021/05/28 09:47:13;;;;;;;6.55;1.00;;;24.80;58.50;;;;;;4759284;30;20386;-77
2021/05/28 09:49:44;;;;;;;4.22;0.98;;;24.90;60.10;;;;;;4753785;30;20379;-75
2021/05/28 09:52:13;;;;;;;4.18;1.30;;;24.80;59.00;;;;;;4784498;29;20417;-75
2021/05/28 09:54:52;;;;;;;1.27;0.85;;;24.90;61.30;;;;;;4771332;30;20036;-77
2021/05/28 09:57:41;;;;;;;2.95;0.85;;;24.90;61.90;;;;;;4771799;30;20070;-79
2021/05/28 10:00:32;;;;;;;2.65;1.20;;;25.20;61.50;;;;;;4785217;29;20075;-81
2021/05/28 10:03:15;;;;;;;5.30;1.38;;;25.30;62.60;;;;;;4756537;30;20039;-81
2021/05/28 10:05:43;;;;;;;3.72;1.23;;;25.50;62.80;;;;;;4784974;30;20048;-80
2021/05/28 10:08:15;;;;;;;3.03;1.50;;;25.70;62.50;;;;;;4774505;29;20368;-77
2021/05/28 10:10:42;;;;;;;1.20;1.08;;;25.50;61.50;;;;;;4783449;30;20111;-78
2021/05/28 10:13:12;;;;;;;5.88;1.00;;;25.50;62.30;;;;;;4768482;30;20039;-79
2021/05/28 10:15:44;;;;;;;3.97;1.90;;;25.50;60.90;;;;;;4771128;30;20472;-80
2021/05/28 10:18:11;;;;;;;2.85;1.70;;;25.50;61.80;;;;;;4770886;30;20032;-82
2021/05/28 10:20:39;;;;;;;2.28;1.20;;;25.50;63.00;;;;;;4770828;30;20031;-80
2021/05/28 10:23:07;;;;;;;3.72;1.63;;;25.60;63.60;;;;;;4784781;29;20100;-80
2021/05/28 10:25:34;;;;;;;4.85;1.52;;;25.80;64.00;;;;;;4774995;29;20043;-79
2021/05/28 10:28:04;;;;;;;4.65;1.30;;;25.80;63.20;;;;;;4772352;29;20085;-78
2021/05/28 10:30:42;;;;;;;6.03;1.50;;;25.90;63.80;;;;;;4784254;29;20032;-78
2021/05/28 10:33:17;;;;;;;5.03;1.35;;;26.00;65.10;;;;;;4769047;29;20031;-81
2021/05/28 10:35:47;;;;;;;4.80;1.27;;;26.20;64.70;;;;;;4770623;30;20494;-77
2021/05/28 10:38:31;;;;;;;3.00;1.50;;;26.00;64.30;;;;;;4770009;30;20382;-80
2021/05/28 10:41:00;;;;;;;5.85;1.85;;;25.90;64.60;;;;;;4770512;30;20027;-80
2021/05/28 10:43:28;;;;;;;4.63;1.30;;;25.90;65.30;;;;;;4770410;30;20118;-81
2021/05/28 10:45:57;;;;;;;3.47;1.30;;;26.10;64.50;;;;;;4769304;30;20040;-77
2021/05/28 10:48:42;;;;;;;4.85;1.48;;;26.20;62.70;;;;;;4770572;30;20056;-79
2021/05/28 10:51:16;;;;;;;4.72;1.25;;;26.30;63.30;;;;;;4770506;30;20040;-83
2021/05/28 10:53:54;;;;;;;5.03;1.60;;;26.30;62.40;;;;;;4784221;29;20134;-84
2021/05/28 10:56:25;;;;;;;1.98;1.30;;;26.30;62.30;;;;;;4783842;30;20051;-83
2021/05/28 10:58:58;;;;;;;5.55;1.38;;;26.50;63.00;;;;;;4769414;30;20038;-83
2021/05/28 11:01:52;;;;;;;2.53;1.30;;;26.40;61.80;;;;;;4783678;29;20040;-77
2021/05/28 11:04:25;;;;;;;2.20;1.00;;;26.20;62.40;;;;;;4770016;29;20090;-79
2021/05/28 11:06:58;;;;;;;4.38;1.02;;;26.30;62.80;;;;;;4770139;30;20554;-79
2021/05/28 11:09:48;;;;;;;3.13;0.80;;;26.30;61.20;;;;;;4770211;30;20391;-78
2021/05/28 11:12:27;;;;;;;0.90;0.70;;;26.20;61.50;;;;;;4768767;30;20047;-80
2021/05/28 11:15:08;;;;;;;4.75;0.90;;;26.20;61.70;;;;;;4768691;30;20036;-80
2021/05/28 11:18:00;;;;;;;5.72;1.23;;;26.20;61.20;;;;;;4783801;29;20122;-77
2021/05/28 11:20:34;;;;;;;7.53;1.73;;;26.10;61.10;;;;;;4770207;30;20039;-81
2021/05/28 11:23:06;;;;;;;1.75;0.95;;;26.00;60.90;;;;;;4770515;30;20118;-82
2021/05/28 11:25:32;;;;;;;1.95;0.93;;;26.20;61.70;;;;;;4769836;30;20068;-80
2021/05/28 11:28:09;;;;;;;5.60;1.33;;;26.00;61.20;;;;;;4769948;30;20031;-84
2021/05/28 11:30:48;;;;;;;2.17;0.90;;;26.10;61.70;;;;;;4769577;30;20462;-84
2021/05/28 11:33:33;;;;;;;3.72;1.17;;;26.30;61.20;;;;;;4769632;30;20637;-78
2021/05/28 11:35:59;;;;;;;3.10;1.20;;;26.10;62.50;;;;;;4769187;30;20113;-77
2021/05/28 11:38:36;;;;;;;3.40;1.40;;;26.10;62.80;;;;;;4767830;30;20502;-77
2021/05/28 11:41:05;;;;;;;2.22;1.10;;;26.40;63.30;;;;;;4759819;30;20573;-78
2021/05/28 11:43:35;;;;;;;4.15;1.50;;;26.70;63.20;;;;;;4769592;30;20035;-75
2021/05/28 11:46:02;;;;;;;3.45;1.10;;;26.70;61.60;;;;;;4783035;30;20040;-76
2021/05/28 11:48:29;;;;;;;5.70;1.15;;;26.30;62.70;;;;;;4769921;30;20038;-80
2021/05/28 11:51:00;;;;;;;2.90;1.17;;;26.40;63.50;;;;;;4769820;30;20405;-78
2021/05/28 11:53:31;;;;;;;3.67;1.27;;;26.50;63.70;;;;;;4769852;30;20385;-79
2021/05/28 11:55:58;;;;;;;3.75;1.40;;;26.80;63.70;;;;;;4783323;29;20046;-79
2021/05/28 11:58:28;;;;;;;4.75;1.45;;;26.40;63.60;;;;;;4783363;29;20055;-80
2021/05/28 12:00:55;;;;;;;1.90;0.82;;;26.70;63.30;;;;;;4769457;30;20032;-81
2021/05/28 12:03:22;;;;;;;4.70;1.10;;;26.70;63.00;;;;;;4769469;30;20028;-79
2021/05/28 12:05:50;;;;;;;1.20;0.82;;;26.60;63.10;;;;;;4769886;30;20027;-79
2021/05/28 12:08:24;;;;;;;2.30;1.00;;;26.50;63.10;;;;;;4769630;30;20053;-79
2021/05/28 12:11:01;;;;;;;4.22;1.00;;;26.50;63.20;;;;;;4768578;29;20036;-80
2021/05/28 12:13:32;;;;;;;4.20;1.05;;;26.50;62.50;;;;;;4769182;30;20024;-79
2021/05/28 12:16:03;;;;;;;2.45;1.10;;;26.70;63.00;;;;;;4759811;30;20074;-81
2021/05/28 12:18:36;;;;;;;4.07;0.90;;;26.70;62.80;;;;;;4769325;30;20043;-81
2021/05/28 12:21:13;;;;;;;2.88;1.17;;;26.80;62.70;;;;;;4777962;30;20028;-79
2021/05/28 12:23:52;;;;;;;3.45;0.73;;;26.80;62.50;;;;;;4765321;30;20067;-79
2021/05/28 12:26:22;;;;;;;6.90;1.20;;;26.60;63.00;;;;;;4764780;30;20120;-80
2021/05/28 12:28:51;;;;;;;3.15;1.45;;;26.70;63.70;;;;;;4777840;29;20053;-79
2021/05/28 12:31:20;;;;;;;1.02;0.93;;;26.70;64.40;;;;;;4782950;29;20122;-80
2021/05/28 12:33:57;;;;;;;4.05;1.13;;;26.70;63.80;;;;;;4771719;29;20137;-85
2021/05/28 12:36:30;;;;;;;1.80;1.10;;;26.60;62.80;;;;;;4779383;29;20450;-87
2021/05/28 12:38:57;;;;;;;2.80;1.15;;;26.20;63.50;;;;;;4782414;29;20067;-83
2021/05/28 12:41:26;;;;;;;3.47;1.50;;;26.20;63.70;;;;;;4769094;30;20032;-84
2021/05/28 12:43:55;;;;;;;4.65;1.33;;;26.20;64.30;;;;;;4771859;30;20048;-80
2021/05/28 12:46:22;;;;;;;3.17;1.10;;;26.10;64.00;;;;;;4771863;30;20366;-79
2021/05/28 12:48:55;;;;;;;1.92;0.90;;;26.10;64.00;;;;;;4785989;30;20123;-78
2021/05/28 12:51:31;;;;;;;;;;;26.20;64.40;;;;;;4785916;29;20040;-81
2021/05/28 12:53:59;;;;;;;2.85;0.98;;;26.00;63.70;;;;;;4770665;30;20371;-81